الصفحة الرئيسية
METAR-TAF:

METAR-TAF

مطار :

الرباط, المغرب

مطار الرباط سلا

دائرة عرض: 34-03N, خط طول: 006-46W, ارتفاع: 84 متر

مراقبة الطقس الحالي

تاريخ ووقت الإصدار 39 دقيقة قبل الساعة 08:00UTC
ريح 5 عقدة من الجنوب, الاتجاه يتراوح بين الجنوب/الجنوب الشرقي و الغرب/الجنوب الغربي
درجة الحرارة 11°درجة مئوية
الرطوبة 87%
ضغط 1008 hPa
الرؤية: 6000 متر
غيوم قليلة على ارتفاع 1500 قدم
غيوم مفككة على ارتفاع 2000 قدم

METAR: GMME 220800Z 19005KT 160V240 6000 FEW015 BKN020 11/09 Q1008 NOSIG

زمن: 08:39 (08:39 UTC)

توقعات

التوقعات صالحة من22 الساعة 05 UTC إلى 23 الساعة 00 UTC
ريح 4 عقدة من الجنوب
الرؤية: 6000 متر
غيوم متفرقة على ارتفاع 1000 قدم
غيوم مفككة على ارتفاع 1500 قدم
نظرية الاحتمالات 30% :
مؤقت
من 22 الساعة 06 UTC إلى 22 الساعة 10 UTC
الرؤية: 2000 متر
غيوم مفككة على ارتفاع 600 قدم
غيوم متفرقة على ارتفاع 1000 قدم
غشاء
أصبح
من 22 الساعة 14 UTC إلى 22 الساعة 18 UTC
ريح 10 عقدة من الشمال
الرؤية 10 كم أو أكثر
الغيوم لا تقل 1500 م ولا وجود لمزنة ركامية السحاب الأسود

TAF: GMME 220500 2206/2312 18004KT 6000 SCT010 BKN015 PROB30 TEMPO 2206/2210 2000 BR BKN006 SCT010 BECMG 2214/2218 36010KT CAVOK

أرصاد الطقس والتوقعات من أكثر من 4000 مطار (تقارير الطقس للمطار METAR والتنبؤ بالطقس بالمطارTAF).

المحطات المتاحة هي النقط الصفراء والحمراء على الخريطة.

حرك المؤشر فوق النقطة لمعرفة اسم المحطة.

ثم انقر لمعرفة أرصاد وتوقعات الطقس.

لتغيير الخارطة: اضغط على الأزرار الخضراء مع رمز الصليب الأسود للتكبير. على الزر الأخضر مع شرطة للتصغير، أو على الأسهم الخضراء للخرائط المجاورة.


METAR-TAF: